Airfield :
LOGIN :

Register | Disclaimer

   EN    FR    IT 

 










Legend :    VFR   Marginal VFR   IFR   Intensive IFR   Very Intensive IFR
Visi :
Ceiling :
>= 8 km
>= 3000ft
5 to 8 km
1000 to 3000 ft
1500m to 5 km
500 to 1000 ft
800 to 1500m
200 to 500 ft
< 800m
< 200 ft
Symbols :   Thunderstorms  Fog  Heavy snow  Heavy precipitations  Wind > 20 kt
SIGMETs :     Misc.  Thunderstorms  Icing  Turbulence  Mountain Waves  Volcanic Ashes






- Airport Elevation : 1768 ft


LEHC - Huesca Pirineos

CURRENT METAR :
  • 210430Z AUTO 29008KT 9999 -SHRA SCT047 OVC056 01/M01 Q1025

EXPIRED METARs :
  • 210400Z AUTO 27009KT 240V330 9999 -SHRA FEW039 BKN056 00/M01 Q1025
  • 210330Z AUTO 27005KT 200V360 9999 -SHRA SCT038 BKN045 OVC050 00/M01 Q1025
  • 210300Z AUTO 25003KT 9999 FEW049 BKN059 01/M01 Q1025
  • 210230Z AUTO 24004KT 210V280 9999 OVC060 01/M01 Q1025
  • 210200Z AUTO 26008KT 9999 OVC060 01/M01 Q1025

TAF TAF LEHC
Valid from the 21 at 03:00 until the 22 at 03:00 UTC


210200Z 2103/2203 29007KT 9999 SCT030 TX11/2114Z TN01/2106Z
PROB40
TEMPO 2103/2115 RA BKN030
BECMG 2106/2108 08012KT
TEMPO 2111/2116 08020G30KT



MET'MAP, your aeronautical weather chart ! - Copyright ORBIFLY December 2007 - Disclaimer

ORBIFLY MET'MAP TEAM :

Programming & Development : Alexandra Zaïnal
Concept & original design : Baudouin d'Aumeries
Assistance for programming : Marc-Olivier Méhu
Technical & hardware support : Manuel Goepfert

Contact : metmap@orbifly.com




SOURCES & CREDITS :

   NOAA